Data for 09/06/2008

Time Sea-Level Adjusted Pressure Absolute Pressure Temperature Relative Humidity Dew Point   
(mb) (inHg) (mb) (inHg) (C) (F) (%) (C) (F)
00:05 1020 30.12 850 25.1 8.8 47.9 83 6.2 43.1
00:10 1020 30.12 850 25.1 8.9 48 81 5.9 42.6
00:15 1020 30.12 850 25.1 9 48.1 79 5.6 42.1
00:20 1020 30.12 850 25.1 9 48.2 82 6.1 43
00:25 1020 30.12 850 25.1 8.9 48.1 82 6.1 43
00:30 1020 30.12 850 25.1 9 48.1 83 6.2 43.2
00:35 1020 30.12 850 25.1 8.9 48 83 6.2 43.2
00:40 1020 30.12 850 25.1 8.9 47.9 83 6.2 43.1
00:45 1020 30.12 850 25.1 8.9 47.9 83 6.2 43.1
00:50 1020 30.12 850 25.1 8.9 48 81 5.8 42.5
00:55 1020 30.12 850 25.1 9 48.1 80 5.8 42.4
01:00 1020 30.12 849 25.07 9.2 48.5 79 5.8 42.4
01:05 1020 30.12 849 25.07 9.1 48.4 79 5.6 42.1
01:10 1020 30.12 849 25.07 8.9 48 81 5.7 42.3
01:15 1020 30.12 849 25.07 8.7 47.6 79 5.2 41.4
01:20 1020 30.12 849 25.07 8.6 47.6 80 5.5 41.8
01:25 1020 30.12 849 25.07 8.6 47.5 80 5.3 41.6
01:30 1020 30.12 849 25.07 8.6 47.5 81 5.5 41.9
01:35 1020 30.12 849 25.07 8.7 47.6 80 5.4 41.8
01:40 1020 30.12 849 25.07 8.7 47.7 79 5.4 41.7
01:45 1020 30.12 849 25.07 8.8 47.8 81 5.7 42.3
01:50 1020 30.12 849 25.07 8.6 47.4 86 6.4 43.6
01:55 1020 30.12 849 25.07 8 46.5 88 6.1 43
02:00 1020 30.12 849 25.07 7.9 46.3 87 5.9 42.7
02:05 1020 30.12 849 25.07 7.9 46.3 87 5.9 42.7
02:10 1020 30.12 849 25.07 8 46.3 87 6 42.8
02:15 1020 30.12 849 25.07 8 46.4 87 6 42.9
02:20 1020 30.12 849 25.07 8 46.5 86 5.9 42.7
02:25 1020 30.12 849 25.07 8.1 46.5 87 6.1 42.9
02:30 1020 30.12 849 25.07 8.1 46.5 86 5.9 42.7
02:35 1020 30.12 849 25.07 8.1 46.5 84 5.6 42
02:40 1020 30.12 849 25.07 8.1 46.6 86 5.8 42.5
02:45 1020 30.12 849 25.07 8 46.4 85 5.6 42.1
02:50 1020 30.12 849 25.07 8.1 46.6 83 5.4 41.7
02:55 1020 30.12 849 25.07 8.2 46.8 84 5.6 42.1
03:00 1020 30.12 849 25.07 8.3 46.9 85 5.8 42.5
03:05 1020 30.12 849 25.07 8.3 47 86 6.1 42.9
03:10 1020 30.12 849 25.07 8.4 47.2 82 5.5 41.9
03:15 1020 30.12 849 25.07 8.5 47.4 84 6 42.8
03:20 1020 30.12 849 25.07 8.5 47.4 84 5.9 42.7
03:25 1020 30.12 849 25.07 8.6 47.4 80 5.4 41.7
03:30 1020 30.12 849 25.07 8.6 47.5 84 6.1 42.9
03:35 1020 30.12 849 25.07 8.5 47.2 86 6.3 43.3
03:40 1020 30.12 849 25.07 8.1 46.6 87 6.1 43
03:45 1020 30.12 849 25.07 8.1 46.5 87 6.1 42.9
03:50 1020 30.12 849 25.07 8.1 46.5 88 6.2 43.1
03:55 1020 30.12 849 25.07 7.9 46.3 89 6.2 43.2
04:00 1020 30.12 849 25.07 8 46.4 90 6.5 43.7
04:05 1020 30.12 849 25.07 7.9 46.2 89 6.1 43
04:10 1020 30.12 849 25.07 7.7 45.8 92 6.5 43.6
04:15 1020 30.12 849 25.07 7.5 45.5 93 6.4 43.6
04:20 1020 30.12 849 25.07 7.5 45.4 91 6.1 42.9
04:25 1020 30.12 849 25.07 7.5 45.6 90 5.9 42.7
04:30 1020 30.12 849 25.07 7.6 45.7 89 6 42.8
04:35 1020 30.12 849 25.07 7.6 45.8 86 5.5 41.9
04:40 1020 30.12 849 25.07 7.6 45.7 89 6 42.7
04:45 1020 30.12 849 25.07 7.5 45.4 89 5.7 42.3
04:50 1020 30.12 849 25.07 7.4 45.4 91 6 42.8
04:55 1020 30.12 849 25.07 7.3 45.2 91 6 42.7
05:00 1020 30.12 849 25.07 7.2 44.9 91 5.8 42.5
05:05 1020 30.12 849 25.07 7.3 45.1 89 5.5 42
05:10 1020 30.12 849 25.07 7.3 45.2 89 5.6 42
05:15 1020 30.12 849 25.07 7.4 45.3 89 5.7 42.2
05:20 1020 30.12 849 25.07 7.4 45.3 87 5.4 41.7
05:25 1020 30.12 849 25.07 7.5 45.4 88 5.7 42.2
05:30 1020 30.12 849 25.07 7.4 45.4 89 5.8 42.4
05:35 1020 30.12 849 25.07 7.5 45.5 89 5.8 42.4
05:40 1020 30.12 849 25.07 7.7 45.9 88 5.9 42.6
05:45 1020 30.12 849 25.07 7.7 45.9 88 5.8 42.5
05:50 1020 30.12 849 25.07 7.7 45.8 89 6 42.7
05:55 1020 30.12 849 25.07 7.4 45.3 92 6.1 43
06:00 1020 30.12 849 25.07 7.1 44.8 91 5.8 42.4
06:05 1020 30.12 849 25.07 7.1 44.8 92 5.8 42.5
06:10 1020 30.12 849 25.07 7.1 44.7 92 5.8 42.5
06:15 1020 30.12 849 25.07 7.1 44.7 91 5.8 42.4
06:20 1020 30.12 849 25.07 7.2 45 90 5.8 42.4
06:25 1020 30.12 849 25.07 7.3 45.2 89 5.6 42.2
06:30 1020 30.12 849 25.07 7.4 45.2 90 5.9 42.6
06:35 1020 30.12 849 25.07 7.2 45 90 5.8 42.4
06:40 1020 30.12 849 25.07 7.2 44.9 90 5.6 42.1
06:45 1020 30.12 849 25.07 7.2 45 88 5.5 41.8
06:50 1020 30.12 849 25.07 7.3 45.1 88 5.4 41.8
06:55 1020 30.12 850 25.1 7.3 45.1 88 5.5 41.9
07:00 1020 30.12 850 25.1 7.2 45 89 5.5 41.9
07:05 1020 30.12 850 25.1 7.2 44.9 89 5.5 41.8
07:10 1020 30.12 850 25.1 7.2 44.9 89 5.5 41.9
07:15 1021 30.15 850 25.1 7.2 45 89 5.6 42
07:20 1021 30.15 850 25.1 7.2 44.9 89 5.5 41.9
07:25 1021 30.15 850 25.1 7.2 45 88 5.5 41.8
07:30 1021 30.15 850 25.1 7.5 45.4 87 5.5 41.9
07:35 1021 30.15 850 25.1 7.5 45.4 87 5.4 41.7
07:40 1021 30.15 850 25.1 7.7 45.9 86 5.5 42
07:45 1021 30.15 850 25.1 8.1 46.5 81 5 41
07:50 1021 30.15 850 25.1 8.3 46.9 85 5.8 42.5
07:55 1021 30.15 850 25.1 8.2 46.8 84 5.6 42.1
08:00 1021 30.15 850 25.1 8.3 47 85 5.9 42.7
08:05 1021 30.15 850 25.1 8.4 47.1 87 6.3 43.3
08:10 1021 30.15 850 25.1 8.3 46.9 88 6.4 43.5
08:15 1021 30.15 850 25.1 8.3 47 88 6.5 43.7
08:20 1021 30.15 850 25.1 8.4 47.1 88 6.5 43.7
08:25 1021 30.15 850 25.1 8.3 46.9 88 6.4 43.6
08:30 1021 30.15 850 25.1 8.1 46.6 89 6.4 43.6
08:35 1021 30.15 850 25.1 8.4 47 86 6.2 43.2
08:40 1021 30.15 850 25.1 8.4 47.2 88 6.5 43.7
08:45 1021 30.15 850 25.1 8.9 48 83 6.1 43
08:50 1021 30.15 850 25.1 9.3 48.7 79 5.9 42.7
08:55 1021 30.15 850 25.1 9.3 48.7 80 6 42.8
09:00 1021 30.15 850 25.1 9.1 48.4 82 6.2 43.2
09:05 1021 30.15 850 25.1 9.1 48.4 82 6.2 43.1
09:10 1021 30.15 850 25.1 9.4 48.9 82 6.5 43.7
09:15 1021 30.15 850 25.1 9.3 48.7 83 6.5 43.7
09:20 1021 30.15 850 25.1 9.4 48.8 82 6.5 43.7
09:25 1021 30.15 851 25.13 9.6 49.3 81 6.6 43.8
09:30 1022 30.18 851 25.13 9.8 49.7 81 6.6 44
09:35 1022 30.18 851 25.13 9.7 49.4 82 6.7 44.1
09:40 1022 30.18 851 25.13 8.9 48 84 6.3 43.4
09:45 1022 30.18 851 25.13 8.6 47.5 88 6.7 44.1
09:50 1022 30.18 851 25.13 8.5 47.3 85 6.1 43.1
09:55 1022 30.18 851 25.13 8.6 47.6 87 6.5 43.8
10:00 1022 30.18 851 25.13 8.9 48 86 6.7 44.1
10:05 1022 30.18 851 25.13 9.3 48.7 83 6.6 43.8
10:10 1022 30.18 851 25.13 9.6 49.2 78 6 42.7
10:15 1022 30.18 851 25.13 9.8 49.6 76 5.8 42.4
10:20 1022 30.18 851 25.13 10 49.9 75 5.7 42.3
10:25 1022 30.18 851 25.13 10 50 74 5.6 42.1
10:30 1022 30.18 851 25.13 10.2 50.3 72 5.4 41.7
10:35 1022 30.18 852 25.16 10.2 50.4 73 5.7 42.2
10:40 1022 30.18 852 25.16 10.5 50.9 74 6 42.8
10:45 1022 30.18 852 25.16 10.7 51.3 72 5.8 42.5
10:50 1022 30.18 851 25.13 10.7 51.3 76 6.7 44.1
10:55 1022 30.18 852 25.16 11.3 52.3 70 6 42.8
11:00 1022 30.18 852 25.16 11.5 52.7 68 5.9 42.6
11:05 1023 30.21 852 25.16 10.9 51.7 71 6 42.8
11:10 1023 30.21 852 25.16 10.5 51 72 5.7 42.2
11:15 1023 30.21 852 25.16 11 51.7 71 5.9 42.7
11:20 1023 30.21 852 25.16 11.3 52.3 69 5.9 42.6
11:25 1023 30.21 852 25.16 10.8 51.4 72 6 42.8
11:30 1023 30.21 852 25.16 10.7 51.3 73 6 42.8
11:35 1023 30.21 852 25.16 10.7 51.2 73 6 42.9
11:40 1023 30.21 852 25.16 10.8 51.4 72 6 42.8
11:45 1023 30.21 852 25.16 10.9 51.6 71 5.8 42.5
11:50 1023 30.21 852 25.16 11.1 52 70 5.9 42.6
11:55 1023 30.21 852 25.16 11.8 53.2 67 6 42.8
12:00 1023 30.21 852 25.16 12.2 54 68 6.6 43.9
12:05 1023 30.21 852 25.16 12 53.6 68 6.4 43.6
12:10 1023 30.21 852 25.16 12 53.5 68 6.3 43.3
12:15 1023 30.21 852 25.16 11.7 53.1 69 6.2 43.1
12:20 1023 30.21 852 25.16 11.9 53.3 66 5.8 42.5
12:25 1023 30.21 852 25.16 11.9 53.5 64 5.4 41.8
12:30 1023 30.21 852 25.16 11.8 53.2 65 5.4 41.8
12:35 1023 30.21 852 25.16 12.1 53.8 64 5.5 41.9
12:40 1022 30.18 852 25.16 12.5 54.4 62 5.3 41.6
12:45 1022 30.18 852 25.16 13.1 55.6 59 5.3 41.5
12:50 1022 30.18 852 25.16 13.1 55.5 60 5.5 41.9
12:55 1022 30.18 852 25.16 13.5 56.3 57 5.2 41.3
13:00 1022 30.18 852 25.16 13.8 56.8 58 5.6 42.1
13:05 1022 30.18 852 25.16 13.6 56.4 56 5 41
13:10 1022 30.18 852 25.16 13.4 56 54 4.3 39.7
13:15 1022 30.18 852 25.16 13.1 55.6 58 5 41
13:20 1023 30.21 852 25.16 13 55.3 58 5 41
13:25 1023 30.21 852 25.16 13.1 55.6 59 5.4 41.7
13:30 1023 30.21 852 25.16 13.5 56.4 57 5.1 41.3
13:35 1022 30.18 852 25.16 13.4 56 58 5.3 41.6
13:40 1022 30.18 852 25.16 13.7 56.7 55 4.9 40.8
13:45 1022 30.18 852 25.16 13.1 55.6 55 4.5 40
13:50 1022 30.18 852 25.16 13 55.5 56 4.5 40
13:55 1022 30.18 852 25.16 13.1 55.6 55 4.2 39.6
14:00 1022 30.18 852 25.16 13.8 56.8 51 3.9 39
14:05 1022 30.18 852 25.16 14.4 57.9 52 4.6 40.3
14:10 1022 30.18 852 25.16 13.7 56.7 55 4.8 40.7
14:15 1022 30.18 852 25.16 13.7 56.6 51 3.8 38.8
14:20 1022 30.18 852 25.16 14.5 58.1 48 3.6 38.6
14:25 1022 30.18 851 25.13 15.7 60.2 46 4.1 39.4
14:30 1022 30.18 851 25.13 14.6 58.2 54 5.5 42
14:35 1022 30.18 851 25.13 13.7 56.7 53 4.4 39.9
14:40 1022 30.18 851 25.13 14 57.1 53 4.7 40.5
14:45 1022 30.18 851 25.13 14.7 58.4 48 4 39.2
14:50 1022 30.18 851 25.13 15.2 59.3 46 3.9 39
14:55 1022 30.18 851 25.13 14.1 57.4 51 4.3 39.7
15:00 1022 30.18 851 25.13 13.7 56.6 51 3.9 39
15:05 1022 30.18 851 25.13 13.7 56.6 56 5.1 41.1
15:10 1022 30.18 851 25.13 13.2 55.7 63 6.4 43.5
15:15 1022 30.18 851 25.13 11.9 53.4 60 4.5 40.1
15:20 1022 30.18 851 25.13 12.1 53.7 65 5.8 42.4
15:25 1022 30.18 851 25.13 12.1 53.7 67 6.2 43.2
15:30 1022 30.18 851 25.13 11.7 53.1 63 5 41
15:35 1022 30.18 851 25.13 11.7 53 60 4.2 39.5
15:40 1022 30.18 851 25.13 12.1 53.7 59 4.5 40
15:45 1022 30.18 851 25.13 13.2 55.7 58 5.2 41.3
15:50 1022 30.18 851 25.13 13.2 55.7 59 5.5 41.9
15:55 1022 30.18 851 25.13 13.3 56 56 4.9 40.8
16:00 1022 30.18 851 25.13 13.9 56.9 54 4.7 40.5
16:05 1022 30.18 851 25.13 13.6 56.4 49 3.2 37.8
16:10 1022 30.18 851 25.13 14.3 57.7 47 3.1 37.6
16:15 1022 30.18 851 25.13 14.6 58.3 49 4.2 39.5
16:20 1022 30.18 851 25.13 14 57.2 50 3.9 39.1
16:25 1022 30.18 851 25.13 14.2 57.6 46 2.7 36.9
16:30 1022 30.18 851 25.13 14.1 57.5 48 3.3 38
16:35 1022 30.18 851 25.13 14 57.2 49 3.6 38.5
16:40 1021 30.15 851 25.13 13.8 56.8 50 3.6 38.5
16:45 1021 30.15 851 25.13 14.1 57.4 52 4.5 40.1
16:50 1021 30.15 851 25.13 13.6 56.5 52 4.2 39.5
16:55 1021 30.15 851 25.13 13.3 55.9 54 4.3 39.7
17:00 1021 30.15 851 25.13 14 57.1 51 4.1 39.5
17:05 1021 30.15 851 25.13 14.3 57.7 48 3.5 38.3
17:10 1021 30.15 851 25.13 14.5 58.1 46 3.2 37.8
17:15 1021 30.15 851 25.13 14.2 57.6 44 2.3 36.2
17:20 1021 30.15 851 25.13 14.9 58.8 41 1.8 35.2
17:25 1021 30.15 850 25.1 15.4 59.7 42 2.6 36.7
17:30 1021 30.15 850 25.1 15 59 42 2.4 36.3
17:35 1021 30.15 850 25.1 15 59 40 1.7 35
17:40 1021 30.15 850 25.1 15.9 60.6 38 1.8 35.3
17:45 1021 30.15 850 25.1 16 60.7 38 1.7 35
17:50 1021 30.15 850 25.1 15.3 59.6 42 2.4 36.4
17:55 1021 30.15 850 25.1 14.9 58.8 43 2.6 36.6
18:00 1021 30.15 850 25.1 14.3 57.8 44 2.2 35.9
18:05 1021 30.15 850 25.1 14.2 57.5 44 2.2 35.9
18:10 1021 30.15 850 25.1 13.8 56.9 45 2.1 35.7
18:15 1021 30.15 850 25.1 13.9 57 46 2.4 36.3
18:20 1021 30.15 850 25.1 13.8 56.9 46 2.4 36.4
18:25 1021 30.15 850 25.1 13.9 57 46 2.4 36.4
18:30 1021 30.15 850 25.1 14 57.1 45 2.4 36.4
18:35 1021 30.15 850 25.1 13.9 57 47 2.8 37.1
18:40 1021 30.15 850 25.1 13.6 56.6 48 2.9 37.1
18:45 1021 30.15 850 25.1 13.6 56.5 47 2.5 36.5
18:50 1021 30.15 850 25.1 13.7 56.6 47 2.6 36.7
18:55 1021 30.15 850 25.1 13.5 56.3 50 3.4 38
19:00 1021 30.15 850 25.1 13.5 56.2 51 3.5 38.3
19:05 1021 30.15 850 25.1 13.3 55.9 51 3.5 38.3
19:10 1021 30.15 850 25.1 13.2 55.7 51 3.4 38.1
19:15 1021 30.15 850 25.1 13 55.4 52 3.5 38.2
19:20 1021 30.15 850 25.1 13 55.4 52 3.5 38.3
19:25 1021 30.15 850 25.1 13 55.4 52 3.4 38.1
19:30 1021 30.15 850 25.1 12.9 55.3 55 4.2 39.5
19:35 1021 30.15 850 25.1 12.8 55.1 53 3.5 38.3
19:40 1021 30.15 850 25.1 12.8 55.1 52 3.3 37.9
19:45 1021 30.15 850 25.1 12.8 55.1 53 3.5 38.2
19:50 1021 30.15 850 25.1 12.7 54.9 54 3.8 38.8
19:55 1021 30.15 850 25.1 12.3 54.2 60 4.9 40.8
20:00 1021 30.15 850 25.1 11.8 53.3 64 5.2 41.4
20:05 1021 30.15 850 25.1 11.3 52.4 67 5.4 41.7
20:10 1021 30.15 850 25.1 10.9 51.7 68 5.4 41.6
20:15 1021 30.15 850 25.1 10.5 50.9 70 5.3 41.5
20:20 1021 30.15 850 25.1 10.2 50.3 71 5.2 41.4
20:25 1021 30.15 850 25.1 9.9 49.9 72 5.2 41.4
20:30 1021 30.15 850 25.1 9.8 49.6 74 5.3 41.5
20:35 1021 30.15 850 25.1 9.7 49.4 73 5.1 41.3
20:40 1021 30.15 850 25.1 9.6 49.4 74 5.2 41.3
20:45 1021 30.15 850 25.1 9.6 49.2 74 5.2 41.3
20:50 1021 30.15 850 25.1 9.5 49.1 74 5.2 41.3
20:55 1021 30.15 850 25.1 9.4 48.9 75 5.2 41.3
21:00 1021 30.15 850 25.1 9.3 48.7 75 5 41.1
21:05 1021 30.15 850 25.1 9.3 48.7 75 5 41
21:10 1021 30.15 850 25.1 9.2 48.6 74 4.9 40.9
21:15 1021 30.15 850 25.1 9.3 48.7 74 4.8 40.7
21:20 1021 30.15 850 25.1 9.3 48.7 74 4.8 40.6
21:25 1021 30.15 850 25.1 9.2 48.6 73 4.7 40.5
21:30 1021 30.15 850 25.1 9.2 48.5 73 4.6 40.4
21:35 1021 30.15 850 25.1 9.2 48.5 73 4.6 40.3
21:40 1021 30.15 850 25.1 9.2 48.5 72 4.4 40
21:45 1021 30.15 850 25.1 9.2 48.6 72 4.4 40
21:50 1021 30.15 850 25.1 9.2 48.6 72 4.4 39.9
21:55 1021 30.15 850 25.1 9.2 48.6 71 4.3 39.8
22:00 1021 30.15 850 25.1 9.2 48.6 71 4.3 39.7
22:05 1021 30.15 850 25.1 9.2 48.6 71 4.2 39.6
22:10 1021 30.15 850 25.1 9.2 48.6 71 4.2 39.6
22:15 1021 30.15 850 25.1 9.2 48.5 71 4.3 39.8
22:20 1021 30.15 850 25.1 9.1 48.4 72 4.4 39.9
22:25 1021 30.15 850 25.1 9 48.3 72 4.3 39.7
22:30 1021 30.15 850 25.1 9 48.2 72 4.3 39.7
22:35 1021 30.15 850 25.1 8.9 48.1 72 4.2 39.5
22:40 1021 30.15 850 25.1 8.9 48 73 4.2 39.6
22:45 1021 30.15 850 25.1 8.7 47.7 73 4.2 39.5
22:50 1021 30.15 850 25.1 8.7 47.6 73 4.1 39.5
22:55 1021 30.15 850 25.1 8.6 47.5 74 4.2 39.6
23:00 1021 30.15 850 25.1 8.6 47.4 74 4.2 39.6
23:05 1021 30.15 850 25.1 8.5 47.4 75 4.3 39.7
23:10 1021 30.15 850 25.1 8.6 47.4 75 4.4 39.9
23:15 1021 30.15 850 25.1 8.5 47.4 75 4.4 39.9
23:20 1021 30.15 850 25.1 8.5 47.3 75 4.4 39.9
23:25 1021 30.15 850 25.1 8.5 47.3 76 4.5 40.2
23:30 1021 30.15 850 25.1 8.4 47.1 77 4.5 40.1
23:35 1021 30.15 850 25.1 8.4 47.1 77 4.6 40.4
23:40 1021 30.15 850 25.1 8.3 47 78 4.7 40.5
23:45 1021 30.15 850 25.1 8.2 46.8 78 4.7 40.5
23:50 1021 30.15 850 25.1 8.2 46.7 78 4.6 40.3
23:55 1021 30.15 850 25.1 8.2 46.8 78 4.6 40.2
24:00 1021 30.15 850 25.1 8.3 46.9 78 4.7 40.5